createdAt,value
2023-02-12T00:01:29.196Z,102383.31
2023-02-12T00:03:58.281Z,102383.52
2023-02-12T00:06:26.715Z,102385.48
2023-02-12T00:08:56.485Z,102381.66
2023-02-12T00:11:28.933Z,102381.40
2023-02-12T00:13:58.074Z,102389.66
2023-02-12T00:16:28.817Z,102395.25
2023-02-12T00:18:58.733Z,102397.90
2023-02-12T00:21:27.658Z,102399.37
2023-02-12T00:23:55.910Z,102403.23
2023-02-12T00:26:24.820Z,102410.83
2023-02-12T00:28:52.939Z,102420.85
2023-02-12T00:31:24.457Z,102419.21
2023-02-12T00:33:53.062Z,102417.75
2023-02-12T00:36:24.931Z,102424.83
2023-02-12T00:38:54.917Z,102430.26
2023-02-12T00:41:26.594Z,102437.55
2023-02-12T00:43:54.872Z,102438.54
2023-02-12T00:46:23.079Z,102440.48
2023-02-12T00:48:52.061Z,102439.29
2023-02-12T00:51:21.813Z,102442.21
2023-02-12T00:53:49.758Z,102445.48
2023-02-12T00:56:17.791Z,102452.70
2023-02-12T00:58:45.874Z,102460.61
2023-02-12T01:01:14.036Z,102463.77
2023-02-12T01:03:42.466Z,102462.98
2023-02-12T01:06:10.483Z,102465.34
2023-02-12T01:08:38.394Z,102467.95
2023-02-12T01:11:06.680Z,102472.94
2023-02-12T01:13:35.205Z,102479.38
2023-02-12T01:16:11.114Z,102482.75
2023-02-12T01:18:39.433Z,102484.77
2023-02-12T01:21:16.596Z,102491.20
2023-02-12T01:23:46.171Z,102496.00
2023-02-12T01:26:15.673Z,102503.09
2023-02-12T01:28:45.785Z,102504.89
2023-02-12T01:31:17.302Z,102503.42
2023-02-12T01:33:48.854Z,102508.05
2023-02-12T01:36:17.160Z,102506.04
2023-02-12T01:38:45.238Z,102506.52
2023-02-12T01:41:20.192Z,102513.19
2023-02-12T01:44:12.702Z,102516.66
2023-02-12T01:46:40.689Z,102517.63
2023-02-12T01:49:16.707Z,102511.92
2023-02-12T01:51:45.555Z,102514.11
2023-02-12T01:54:17.681Z,102512.91
2023-02-12T01:56:46.014Z,102513.53
2023-02-12T01:59:14.121Z,102514.71
2023-02-12T02:01:42.509Z,102512.92
2023-02-12T02:04:15.477Z,102514.45
2023-02-12T02:06:50.717Z,102514.61
2023-02-12T02:09:20.093Z,102524.26
2023-02-12T02:12:06.785Z,102521.74
2023-02-12T02:14:36.096Z,102525.10
2023-02-12T02:17:13.521Z,102528.33
2023-02-12T02:20:03.861Z,102529.25
2023-02-12T02:22:41.006Z,102534.23
2023-02-12T02:25:34.999Z,102534.98
2023-02-12T02:28:18.528Z,102536.29
2023-02-12T02:31:00.637Z,102542.41
2023-02-12T02:33:50.758Z,102543.98
2023-02-12T02:36:26.193Z,102544.75
2023-02-12T02:39:07.362Z,102550.26
2023-02-12T02:41:41.334Z,102550.39
2023-02-12T02:44:17.775Z,102549.34
2023-02-12T02:46:51.966Z,102556.35
2023-02-12T02:49:35.677Z,102558.73
2023-02-12T02:52:19.320Z,102560.89
2023-02-12T02:54:54.638Z,102561.75
2023-02-12T02:57:29.446Z,102564.73
2023-02-12T03:00:10.212Z,102567.52
2023-02-12T03:02:42.473Z,102571.17
2023-02-12T03:05:20.170Z,102568.89
2023-02-12T03:08:12.383Z,102569.05
2023-02-12T03:10:45.922Z,102570.08
2023-02-12T03:13:24.749Z,102572.52
2023-02-12T03:16:04.890Z,102578.20
2023-02-12T03:18:50.186Z,102580.47
2023-02-12T03:21:27.608Z,102587.61
2023-02-12T03:24:22.342Z,102594.80
2023-02-12T03:27:13.970Z,102604.95
2023-02-12T03:29:41.918Z,102606.14
2023-02-12T03:32:30.827Z,102608.36
2023-02-12T03:35:04.990Z,102615.74
2023-02-12T03:37:55.076Z,102621.35
2023-02-12T03:40:31.131Z,102623.52
2023-02-12T03:43:19.599Z,102625.36
2023-02-12T03:45:56.156Z,102630.98
2023-02-12T03:48:41.503Z,102635.70
2023-02-12T03:51:25.207Z,102640.79
2023-02-12T03:53:53.313Z,102642.42
2023-02-12T03:56:28.706Z,102643.30
2023-02-12T03:58:57.604Z,102645.34
2023-02-12T04:01:27.495Z,102652.31
2023-02-12T04:03:56.278Z,102650.96
2023-02-12T04:06:27.044Z,102651.74
2023-02-12T04:08:58.323Z,102651.73
2023-02-12T04:12:04.901Z,102658.33
2023-02-12T04:14:56.515Z,102658.67
2023-02-12T04:17:50.289Z,102658.76
2023-02-12T04:20:27.648Z,102665.02
2023-02-12T04:22:55.620Z,102668.61
2023-02-12T04:26:01.988Z,102667.08
2023-02-12T04:29:09.418Z,102675.46
2023-02-12T04:32:03.881Z,102680.58
2023-02-12T04:34:40.545Z,102682.63
2023-02-12T04:37:30.326Z,102679.83
2023-02-12T04:40:00.362Z,102676.20
2023-02-12T04:42:28.399Z,102675.98
2023-02-12T04:44:56.209Z,102672.73
2023-02-12T04:47:24.023Z,102673.45
2023-02-12T04:49:52.075Z,102676.59
2023-02-12T04:52:19.891Z,102680.61
2023-02-12T04:54:47.856Z,102683.19
2023-02-12T04:57:15.783Z,102682.34
2023-02-12T04:59:43.647Z,102684.40
2023-02-12T05:02:11.555Z,102685.50
2023-02-12T05:04:39.541Z,102688.91
2023-02-12T05:07:07.423Z,102691.16
2023-02-12T05:09:35.245Z,102696.17
2023-02-12T05:12:03.410Z,102699.33
2023-02-12T05:14:31.350Z,102705.46
2023-02-12T05:16:59.510Z,102706.90
2023-02-12T05:19:27.286Z,102713.23
2023-02-12T05:21:55.313Z,102714.97
2023-02-12T05:24:23.346Z,102719.31
2023-02-12T05:26:51.741Z,102723.13
2023-02-12T05:29:20.053Z,102725.41
2023-02-12T05:31:48.218Z,102730.61
2023-02-12T05:34:16.275Z,102735.77
2023-02-12T05:36:44.285Z,102745.13
2023-02-12T05:39:12.219Z,102743.26
2023-02-12T05:41:40.227Z,102748.34
2023-02-12T05:44:08.113Z,102752.33
2023-02-12T05:46:36.216Z,102750.17
2023-02-12T05:49:04.486Z,102753.06
2023-02-12T05:51:32.645Z,102757.13
2023-02-12T05:54:03.757Z,102765.61
2023-02-12T05:56:34.384Z,102766.45
2023-02-12T05:59:23.446Z,102771.80
2023-02-12T06:01:52.226Z,102777.18
2023-02-12T06:04:23.856Z,102790.52
2023-02-12T06:06:53.491Z,102789.40
2023-02-12T06:09:21.954Z,102791.64
2023-02-12T06:11:49.764Z,102792.98
2023-02-12T06:14:19.832Z,102797.88
2023-02-12T06:16:50.276Z,102802.38
2023-02-12T06:19:19.364Z,102806.00
2023-02-12T06:21:47.857Z,102808.73
2023-02-12T06:24:17.222Z,102813.30
2023-02-12T06:26:46.048Z,102816.50
2023-02-12T06:29:13.935Z,102820.30
2023-02-12T06:31:42.817Z,102823.45
2023-02-12T06:34:13.073Z,102826.70
2023-02-12T06:36:44.730Z,102833.66
2023-02-12T06:39:15.661Z,102835.31
2023-02-12T06:41:44.752Z,102837.93
2023-02-12T06:44:13.243Z,102844.27
2023-02-12T06:46:41.505Z,102848.70
2023-02-12T06:49:12.557Z,102850.27
2023-02-12T06:51:41.532Z,102855.70
2023-02-12T06:54:14.552Z,102862.60
2023-02-12T06:56:42.565Z,102870.58
2023-02-12T06:59:15.335Z,102874.25
2023-02-12T07:01:44.136Z,102870.75
2023-02-12T07:04:12.247Z,102873.55
2023-02-12T07:06:40.736Z,102875.44
2023-02-12T07:09:08.831Z,102876.06
2023-02-12T07:11:38.479Z,102879.54
2023-02-12T07:14:08.117Z,102875.02
2023-02-12T07:16:40.648Z,102875.00
2023-02-12T07:19:09.668Z,102875.38
2023-02-12T07:21:37.482Z,102877.73
2023-02-12T07:24:05.678Z,102881.50
2023-02-12T07:26:33.634Z,102883.29
2023-02-12T07:29:01.646Z,102888.48
2023-02-12T07:31:29.612Z,102885.02
2023-02-12T07:33:59.769Z,102887.48
2023-02-12T07:36:30.696Z,102889.27
2023-02-12T07:39:00.137Z,102890.63
2023-02-12T07:41:30.852Z,102891.98
2023-02-12T07:44:03.625Z,102889.15
2023-02-12T07:46:34.234Z,102895.67
2023-02-12T07:49:05.848Z,102900.55
2023-02-12T07:51:35.582Z,102909.33
2023-02-12T07:54:04.323Z,102911.85
2023-02-12T07:56:35.503Z,102909.66
2023-02-12T07:59:12.873Z,102913.47
2023-02-12T08:01:45.637Z,102911.45
2023-02-12T08:04:16.396Z,102910.95
2023-02-12T08:06:49.869Z,102911.83
2023-02-12T08:09:24.139Z,102915.70
2023-02-12T08:11:52.182Z,102918.69
2023-02-12T08:14:22.009Z,102918.44
2023-02-12T08:16:50.882Z,102919.67
2023-02-12T08:19:24.049Z,102926.13
2023-02-12T08:21:55.243Z,102928.52
2023-02-12T08:24:24.728Z,102923.57
2023-02-12T08:26:52.898Z,102919.25
2023-02-12T08:29:24.478Z,102921.02
2023-02-12T08:31:58.155Z,102921.30
2023-02-12T08:34:32.142Z,102926.76
2023-02-12T08:37:00.549Z,102928.81
2023-02-12T08:39:29.794Z,102927.52
2023-02-12T08:41:59.392Z,102932.21
2023-02-12T08:44:27.920Z,102932.64
2023-02-12T08:46:55.888Z,102934.48
2023-02-12T08:49:26.938Z,102933.20
2023-02-12T08:51:57.081Z,102926.23
2023-02-12T08:54:27.429Z,102928.48
2023-02-12T08:57:00.413Z,102932.86
2023-02-12T08:59:28.775Z,102935.33
2023-02-12T09:01:56.970Z,102935.39
2023-02-12T09:04:27.080Z,102939.24
2023-02-12T09:06:56.198Z,102938.94
2023-02-12T09:09:24.704Z,102939.95
2023-02-12T09:11:52.845Z,102944.07
2023-02-12T09:14:24.951Z,102941.64
2023-02-12T09:16:54.210Z,102947.37
2023-02-12T09:19:22.522Z,102953.92
2023-02-12T09:21:55.168Z,102957.44
2023-02-12T09:24:25.735Z,102964.10
2023-02-12T09:26:53.761Z,102962.48
2023-02-12T09:29:21.734Z,102962.65
2023-02-12T09:31:49.746Z,102961.20
2023-02-12T09:34:18.106Z,102965.86
2023-02-12T09:36:46.060Z,102964.80
2023-02-12T09:39:14.005Z,102968.73
2023-02-12T09:42:15.372Z,102973.64
2023-02-12T09:44:52.486Z,102971.94
2023-02-12T09:47:32.353Z,102976.53
2023-02-12T09:50:06.147Z,102973.88
2023-02-12T09:52:35.541Z,102973.60
2023-02-12T09:55:04.089Z,102968.89
2023-02-12T09:57:36.183Z,102971.77
2023-02-12T10:00:24.483Z,102969.64
2023-02-12T10:02:54.454Z,102964.32
2023-02-12T10:05:29.338Z,102970.58
2023-02-12T10:08:39.313Z,102970.56
2023-02-12T10:11:16.137Z,102967.66
2023-02-12T10:14:38.842Z,102962.11
2023-02-12T10:17:34.313Z,102965.33
2023-02-12T10:20:20.436Z,102958.80
2023-02-12T10:23:16.129Z,102957.71
2023-02-12T10:25:54.576Z,102958.72
2023-02-12T10:28:35.257Z,102958.65
2023-02-12T10:31:08.191Z,102961.00
2023-02-12T10:33:42.146Z,102962.88
2023-02-12T10:36:26.261Z,102963.25
2023-02-12T10:39:01.349Z,102959.14
2023-02-12T10:41:31.510Z,102957.09
2023-02-12T10:43:59.513Z,102959.58
2023-02-12T10:46:32.111Z,102964.58
2023-02-12T10:49:00.769Z,102967.15
2023-02-12T10:51:50.099Z,102969.92
2023-02-12T10:54:41.743Z,102969.13
2023-02-12T10:57:22.081Z,102966.41
2023-02-12T10:59:53.410Z,102964.27
2023-02-12T11:02:23.014Z,102961.22
2023-02-12T11:04:52.799Z,102955.85
2023-02-12T11:07:22.032Z,102959.11
2023-02-12T11:09:52.031Z,102955.24
2023-02-12T11:12:22.904Z,102957.77
2023-02-12T11:14:54.302Z,102957.79
2023-02-12T11:17:39.861Z,102956.95
2023-02-12T11:20:16.614Z,102952.02
2023-02-12T11:22:50.320Z,102955.59
2023-02-12T11:25:18.831Z,102955.37
2023-02-12T11:28:00.305Z,102959.36
2023-02-12T11:30:28.540Z,102961.44
2023-02-12T11:33:16.453Z,102961.14
2023-02-12T11:35:58.085Z,102955.00
2023-02-12T11:38:36.783Z,102951.36
2023-02-12T11:41:38.213Z,102949.64
2023-02-12T11:44:22.449Z,102947.86
2023-02-12T11:47:02.167Z,102942.64
2023-02-12T11:49:34.806Z,102940.39
2023-02-12T11:52:04.856Z,102940.99
2023-02-12T11:54:42.069Z,102941.26
2023-02-12T11:57:35.854Z,102939.44
2023-02-12T12:00:16.597Z,102936.05
2023-02-12T12:03:06.884Z,102934.23
2023-02-12T12:06:01.259Z,102933.23
2023-02-12T12:08:44.325Z,102936.90
2023-02-12T12:11:20.810Z,102939.46
2023-02-12T12:14:15.228Z,102934.15
2023-02-12T12:17:13.335Z,102934.12
2023-02-12T12:20:06.840Z,102935.42
2023-02-12T12:22:51.451Z,102934.55
2023-02-12T12:25:30.078Z,102940.16
2023-02-12T12:28:10.809Z,102932.70
2023-02-12T12:31:02.973Z,102934.04
2023-02-12T12:33:46.807Z,102929.20
2023-02-12T12:36:14.818Z,102926.55
2023-02-12T12:38:49.286Z,102925.81
2023-02-12T12:41:41.414Z,102914.14
2023-02-12T12:44:31.021Z,102913.91
2023-02-12T12:47:17.944Z,102908.02
2023-02-12T12:49:59.149Z,102900.22
2023-02-12T12:52:33.297Z,102905.70
2023-02-12T12:55:07.502Z,102905.34
2023-02-12T12:57:39.934Z,102908.61
2023-02-12T13:00:29.134Z,102907.65
2023-02-12T13:03:29.297Z,102908.69
2023-02-12T13:06:21.729Z,102913.02
2023-02-12T13:09:08.857Z,102906.41
2023-02-12T13:11:55.062Z,102903.23
2023-02-12T13:14:44.839Z,102897.89
2023-02-12T13:17:30.734Z,102897.80
2023-02-12T13:19:58.833Z,102895.51
2023-02-12T13:22:35.045Z,102896.37
2023-02-12T13:25:21.225Z,102894.76
2023-02-12T13:27:52.137Z,102890.46
2023-02-12T13:30:25.242Z,102887.24
2023-02-12T13:33:24.183Z,102877.08
2023-02-12T13:35:57.323Z,102880.14
2023-02-12T13:38:39.492Z,102879.33
2023-02-12T13:41:11.238Z,102878.84
2023-02-12T13:43:39.159Z,102882.69
2023-02-12T13:46:13.169Z,102880.60
2023-02-12T13:48:40.975Z,102873.41
2023-02-12T13:51:41.392Z,102876.15
2023-02-12T13:54:33.489Z,102874.22
2023-02-12T13:57:07.882Z,102882.11
2023-02-12T13:59:35.837Z,102886.38
2023-02-12T14:02:06.726Z,102886.21
2023-02-12T14:04:52.932Z,102882.89
2023-02-12T14:07:22.256Z,102881.10
2023-02-12T14:09:50.121Z,102881.85
2023-02-12T14:12:28.657Z,102878.70
2023-02-12T14:15:07.136Z,102882.77
2023-02-12T14:17:35.043Z,102882.45
2023-02-12T14:20:13.612Z,102880.69
2023-02-12T14:22:44.274Z,102883.74
2023-02-12T14:25:15.056Z,102886.56
2023-02-12T14:27:50.371Z,102888.71
2023-02-12T14:30:35.456Z,102887.13
2023-02-12T14:33:26.460Z,102892.38
2023-02-12T14:36:17.512Z,102894.27
2023-02-12T14:38:47.769Z,102895.11
2023-02-12T14:41:41.925Z,102892.20
2023-02-12T14:44:23.399Z,102892.54
2023-02-12T14:46:58.923Z,102893.33
2023-02-12T14:49:49.086Z,102892.89
2023-02-12T14:52:22.668Z,102892.98
2023-02-12T14:55:04.240Z,102896.86
2023-02-12T14:57:39.524Z,102894.31
2023-02-12T15:00:16.733Z,102897.45
2023-02-12T15:02:53.856Z,102899.52
2023-02-12T15:05:29.182Z,102897.45
2023-02-12T15:08:12.054Z,102895.98
2023-02-12T15:10:47.477Z,102895.91
2023-02-12T15:13:30.889Z,102898.11
2023-02-12T15:16:27.609Z,102899.40
2023-02-12T15:19:18.735Z,102902.94
2023-02-12T15:21:47.968Z,102904.02
2023-02-12T15:24:23.574Z,102904.97
2023-02-12T15:26:54.582Z,102901.23
2023-02-12T15:29:27.766Z,102902.02
2023-02-12T15:32:02.482Z,102902.98
2023-02-12T15:34:33.318Z,102902.38
2023-02-12T15:37:03.744Z,102901.58
2023-02-12T15:39:43.433Z,102898.11
2023-02-12T15:42:52.930Z,102900.36
2023-02-12T15:45:23.878Z,102894.71
2023-02-12T15:48:19.306Z,102894.16
2023-02-12T15:51:07.898Z,102895.63
2023-02-12T15:53:38.574Z,102899.59
2023-02-12T15:56:19.710Z,102900.45
2023-02-12T15:58:50.235Z,102897.42
2023-02-12T16:01:52.402Z,102902.17
2023-02-12T16:04:20.450Z,102907.05
2023-02-12T16:06:49.527Z,102906.25
2023-02-12T16:09:27.727Z,102904.89
2023-02-12T16:11:58.308Z,102898.23
2023-02-12T16:14:28.733Z,102898.43
2023-02-12T16:16:59.251Z,102902.17
2023-02-12T16:19:37.265Z,102898.63
2023-02-12T16:22:05.632Z,102898.21
2023-02-12T16:24:38.115Z,102901.20
2023-02-12T16:27:20.040Z,102902.60
2023-02-12T16:29:51.853Z,102900.42
2023-02-12T16:32:31.219Z,102900.09
2023-02-12T16:35:24.859Z,102904.58
2023-02-12T16:38:17.337Z,102909.14
2023-02-12T16:41:11.023Z,102912.82
2023-02-12T16:43:38.972Z,102914.13
2023-02-12T16:46:08.722Z,102920.44
2023-02-12T16:48:49.070Z,102925.32
2023-02-12T16:51:37.614Z,102926.29
2023-02-12T16:54:26.588Z,102927.43
2023-02-12T16:56:54.629Z,102921.80
2023-02-12T16:59:22.808Z,102919.02
2023-02-12T17:02:09.773Z,102915.04
2023-02-12T17:04:37.658Z,102915.70
2023-02-12T17:07:28.252Z,102918.63
2023-02-12T17:09:56.318Z,102922.18
2023-02-12T17:12:24.650Z,102921.23
2023-02-12T17:14:52.712Z,102924.02
2023-02-12T17:17:20.614Z,102925.29
2023-02-12T17:19:48.621Z,102928.96
2023-02-12T17:22:26.506Z,102926.66
2023-02-12T17:24:54.899Z,102924.14
2023-02-12T17:27:22.854Z,102928.11
2023-02-12T17:29:50.890Z,102923.85
2023-02-12T17:32:18.994Z,102926.64
2023-02-12T17:34:48.839Z,102932.43
2023-02-12T17:37:18.427Z,102934.02
2023-02-12T17:39:46.586Z,102935.29
2023-02-12T17:42:14.835Z,102935.84
2023-02-12T17:44:42.768Z,102938.12
2023-02-12T17:47:10.853Z,102938.08
2023-02-12T17:49:39.962Z,102937.36
2023-02-12T17:52:08.043Z,102931.84
2023-02-12T17:54:36.737Z,102933.76
2023-02-12T17:57:04.836Z,102932.40
2023-02-12T17:59:32.893Z,102935.47
2023-02-12T18:02:00.854Z,102936.08
2023-02-12T18:04:28.901Z,102932.35
2023-02-12T18:06:57.738Z,102934.50
2023-02-12T18:09:25.575Z,102936.36
2023-02-12T18:11:53.800Z,102939.27
2023-02-12T18:14:21.833Z,102939.34
2023-02-12T18:16:50.070Z,102939.85
2023-02-12T18:19:18.022Z,102939.97
2023-02-12T18:21:45.984Z,102933.55
2023-02-12T18:24:14.026Z,102934.22
2023-02-12T18:26:42.055Z,102934.40
2023-02-12T18:29:10.246Z,102929.48
2023-02-12T18:31:38.174Z,102928.39
2023-02-12T18:34:07.121Z,102933.40
2023-02-12T18:36:35.045Z,102925.16
2023-02-12T18:39:03.745Z,102924.88
2023-02-12T18:41:35.917Z,102920.86
2023-02-12T18:44:05.350Z,102921.88
2023-02-12T18:46:33.246Z,102918.78
2023-02-12T18:49:01.765Z,102921.42
2023-02-12T18:51:33.832Z,102922.10
2023-02-12T18:54:06.432Z,102920.44
2023-02-12T18:56:41.075Z,102919.98
2023-02-12T18:59:12.257Z,102924.89
2023-02-12T19:01:40.287Z,102922.30
2023-02-12T19:04:11.512Z,102923.94
2023-02-12T19:06:51.115Z,102927.76
2023-02-12T19:09:23.410Z,102927.88
2023-02-12T19:11:54.290Z,102928.66
2023-02-12T19:14:24.054Z,102927.10
2023-02-12T19:16:52.982Z,102929.92
2023-02-12T19:19:22.031Z,102930.69
2023-02-12T19:21:50.915Z,102927.61
2023-02-12T19:24:19.064Z,102929.73
2023-02-12T19:26:51.723Z,102928.33
2023-02-12T19:29:19.931Z,102928.04
2023-02-12T19:31:48.063Z,102926.27
2023-02-12T19:34:19.733Z,102930.90
2023-02-12T19:36:49.044Z,102929.47
2023-02-12T19:39:20.597Z,102931.87
2023-02-12T19:41:49.230Z,102927.53
2023-02-12T19:44:21.765Z,102922.98
2023-02-12T19:46:50.689Z,102924.35
2023-02-12T19:49:27.638Z,102922.69
2023-02-12T19:51:55.704Z,102925.00
2023-02-12T19:54:24.473Z,102916.34
2023-02-12T19:56:54.111Z,102917.01
2023-02-12T19:59:23.817Z,102913.80
2023-02-12T20:01:51.905Z,102914.83
2023-02-12T20:04:23.028Z,102914.88
2023-02-12T20:06:51.315Z,102914.34
2023-02-12T20:09:21.533Z,102915.61
2023-02-12T20:11:49.637Z,102913.02
2023-02-12T20:14:17.962Z,102915.13
2023-02-12T20:16:47.588Z,102916.19
2023-02-12T20:19:19.799Z,102915.16
2023-02-12T20:21:53.398Z,102914.14
2023-02-12T20:24:27.998Z,102918.84
2023-02-12T20:26:58.424Z,102917.67
2023-02-12T20:29:27.002Z,102920.79
2023-02-12T20:31:55.057Z,102914.77
2023-02-12T20:34:23.362Z,102918.29
2023-02-12T20:36:51.489Z,102916.21
2023-02-12T20:39:20.905Z,102916.48
2023-02-12T20:41:50.194Z,102917.10
2023-02-12T20:44:21.086Z,102917.64
2023-02-12T20:46:54.537Z,102912.38
2023-02-12T20:49:25.698Z,102912.34
2023-02-12T20:51:54.000Z,102915.34
2023-02-12T20:54:22.189Z,102914.79
2023-02-12T20:56:50.912Z,102913.38
2023-02-12T20:59:18.977Z,102907.85
2023-02-12T21:01:47.609Z,102909.09
2023-02-12T21:04:18.671Z,102905.44
2023-02-12T21:06:48.552Z,102904.84
2023-02-12T21:09:17.623Z,102909.54
2023-02-12T21:11:45.964Z,102908.21
2023-02-12T21:14:23.857Z,102907.80
2023-02-12T21:16:54.325Z,102906.42
2023-02-12T21:19:24.446Z,102907.94
2023-02-12T21:21:52.967Z,102908.29
2023-02-12T21:24:24.198Z,102905.46
2023-02-12T21:26:53.682Z,102910.08
2023-02-12T21:29:22.156Z,102906.48
2023-02-12T21:31:51.594Z,102902.35
2023-02-12T21:34:22.264Z,102908.95
2023-02-12T21:36:53.127Z,102908.39
2023-02-12T21:39:25.103Z,102907.78
2023-02-12T21:41:55.851Z,102907.83
2023-02-12T21:44:25.549Z,102909.39
2023-02-12T21:46:54.089Z,102909.22
2023-02-12T21:49:27.890Z,102905.68
2023-02-12T21:51:59.244Z,102906.33
2023-02-12T21:54:29.187Z,102907.38
2023-02-12T21:56:57.408Z,102910.68
2023-02-12T21:59:26.667Z,102913.70
2023-02-12T22:01:58.070Z,102913.27
2023-02-12T22:04:27.011Z,102910.92
2023-02-12T22:06:56.622Z,102911.90
2023-02-12T22:09:24.571Z,102910.83
2023-02-12T22:11:52.995Z,102912.73
2023-02-12T22:14:22.938Z,102913.16
2023-02-12T22:16:51.164Z,102910.33
2023-02-12T22:19:19.360Z,102914.42
2023-02-12T22:21:51.704Z,102912.66
2023-02-12T22:24:21.202Z,102911.69
2023-02-12T22:26:49.655Z,102914.59
2023-02-12T22:29:18.499Z,102918.09
2023-02-12T22:31:47.695Z,102915.61
2023-02-12T22:34:19.105Z,102910.65
2023-02-12T22:36:47.875Z,102903.10
2023-02-12T22:39:17.603Z,102903.77
2023-02-12T22:41:46.374Z,102907.73
2023-02-12T22:44:15.789Z,102909.43
2023-02-12T22:46:44.820Z,102904.25
2023-02-12T22:49:13.463Z,102902.82
2023-02-12T22:51:41.868Z,102901.31
2023-02-12T22:54:14.776Z,102899.83
2023-02-12T22:56:43.529Z,102896.35
2023-02-12T22:59:12.479Z,102890.88
2023-02-12T23:01:41.114Z,102894.33
2023-02-12T23:04:17.392Z,102898.17
2023-02-12T23:06:45.561Z,102899.98
2023-02-12T23:09:15.512Z,102903.79
2023-02-12T23:11:43.857Z,102900.44
2023-02-12T23:14:12.343Z,102901.69
2023-02-12T23:16:40.376Z,102901.80
2023-02-12T23:19:11.247Z,102897.27
2023-02-12T23:21:39.858Z,102892.96
2023-02-12T23:24:07.877Z,102897.73
2023-02-12T23:26:36.749Z,102899.83
2023-02-12T23:29:04.619Z,102896.50
2023-02-12T23:31:32.613Z,102896.63
2023-02-12T23:34:00.503Z,102897.58
2023-02-12T23:36:29.113Z,102894.91
2023-02-12T23:38:57.100Z,102896.20
2023-02-12T23:41:25.023Z,102889.70
2023-02-12T23:43:53.048Z,102884.73
2023-02-12T23:46:21.753Z,102885.67
2023-02-12T23:48:49.811Z,102883.41
2023-02-12T23:51:17.836Z,102880.09
2023-02-12T23:53:45.838Z,102881.95
2023-02-12T23:56:13.757Z,102880.45
2023-02-12T23:58:41.569Z,102884.01
